Sunday, November 19, 2017, 4:50 AM GMT
Back to Local

CWFQ, Frelighsburg

Location: , , Canada Lat: 45.05
Local Time: 4:50 AM GMT ( 4:50 GMT) Lon: -72.833
Time Zone: GMT Elev: 498 ft

Show me the last for .
Show Coded

Time T Td Feel RH Dir Speed Gust Alt SLP Vis Weather Sky Remarks
2017-11-19 04:00 33 31 25 93 150° 9 - - 29.33 0 1-hr Precip Total: 0.02"
2017-11-19 03:00 34 32 28 93 140° 7 - - 29.38 0 1-hr Precip Total: 0.07"
2017-11-19 02:00 35 27 29 69 140° 8 - - 29.41 0 None
2017-11-19 01:00 35 25 29 65 140° 8 - - 29.46 0 None
2017-11-19 00:00 35 22 29 58 140° 7 - - 29.50 0 None
2017-11-18 23:00 33 21 27 60 150° 6 - - 29.52 0 None
2017-11-18 22:00 33 18 29 54 150° 5 - - 29.54 0 None
2017-11-18 21:00 35 18 28 49 150° 9 - - 29.55 0 None
2017-11-18 20:00 36 17 29 45 150° 8 - - 29.55 0 None
2017-11-18 19:00 36 15 30 42 140° 7 - - 29.60 0 Pressure falling rapidly
2017-11-18 18:00 35 15 32 42 140° 3 - - 29.67 0 None
2017-11-18 17:00 35 12 - 38 160° 2 - - 29.69 0 None
2017-11-18 16:00 32 13 25 44 140° 7 - - 29.71 0 None
2017-11-18 15:00 31 13 25 45 130° 7 - - 29.77 0 None
2017-11-18 14:00 28 10 21 46 120° 7 - - 29.80 0 None
2017-11-18 13:00 25 12 20 55 130° 5 - - 29.85 0 None
2017-11-18 12:00 23 13 17 65 140° 5 - - 29.89 0 None
2017-11-18 11:00 20 14 12 79 140° 6 - - 29.91 0 None
2017-11-18 10:00 19 15 14 81 150° 3 - - 29.94 0 None
2017-11-18 09:00 18 14 11 84 160° 5 - - 29.98 0 None
2017-11-18 08:00 18 14 11 82 160° 5 - - 29.97 0 None
2017-11-18 07:00 20 14 14 76 180° 5 - - 30.00 0 None
2017-11-18 06:00 19 15 13 85 180° 3 - - 30.00 0 None
2017-11-18 05:00 19 15 - 84 190° 2 - - 30.03 0 None

Support USWX by starting your Amazon purchase here.